F/V Oiseau D Tempete — FHGL — position and weather

sailwx.info

Track history (hours):
 
Tides and Currents Weather Stations Pressure Air Temp Water Temp Dewpoint Dewpoint Depression Visibility Wind Speed Wind Dir Waves Ship Positions

F/V Oiseau D Tempete

Last reported at 2018-Feb-18 21:01 UTC. Time now 2018-Feb-21 09:44 UTC.
Position N 47°01' W 002°20'.

Length 15 m; draft 2 m.

Type: Fishing. MMSI: 227808000.

Date/timePositionNaut miles runAvg speedWind from/ knotsBaromVisibWave heightAir tempDewpointWater temp
2018-Feb-18 21:01N 47°01' W 002°20'010.1
2018-Feb-18 21:00N 47°01' W 002°20'2 1.5
2018-Feb-18 19:55N 47°02' W 002°18'0 0.0
2018-Feb-18 19:29N 47°02' W 002°18'0 0.0
2018-Feb-18 18:56N 47°02' W 002°18'0 0.0
2018-Feb-18 18:30N 47°02' W 002°18'0 0.0
2018-Feb-18 17:59N 47°02' W 002°18'0 0.0
2018-Feb-18 17:29N 47°02' W 002°18'0 0.0
2018-Feb-18 17:00N 47°02' W 002°18'0 0.0
2018-Feb-18 16:29N 47°02' W 002°18'0 0.0
2018-Feb-18 15:59N 47°02' W 002°18'0 0.0
2018-Feb-18 15:26N 47°02' W 002°18'0 0.0
2018-Feb-18 14:58N 47°02' W 002°18'0 0.0
2018-Feb-18 14:04N 47°02' W 002°18'0 0.0
2018-Feb-18 13:51N 47°02' W 002°18'0 0.0
2018-Feb-18 13:21N 47°02' W 002°18'0 0.0
2018-Feb-18 12:47N 47°02' W 002°18'0 0.0
2018-Feb-18 12:25N 47°02' W 002°18'0 0.0
2018-Feb-18 11:38N 47°02' W 002°18'0 0.0
2018-Feb-18 11:30N 47°02' W 002°18'0 0.0
2018-Feb-18 11:00N 47°02' W 002°18'0 0.0
2018-Feb-18 10:20N 47°02' W 002°18'0 0.0
2018-Feb-18 09:57N 47°02' W 002°18'0 0.0
2018-Feb-18 09:29N 47°02' W 002°18'0 0.0
2018-Feb-18 08:59N 47°02' W 002°18'0 0.0
2018-Feb-18 08:30N 47°02' W 002°18'0 0.0
2018-Feb-18 08:00N 47°02' W 002°18'0 0.0
2018-Feb-18 07:28N 47°02' W 002°18'0 0.0
2018-Feb-18 06:59N 47°02' W 002°18'0 0.0
2018-Feb-18 06:29N 47°02' W 002°18'0 0.0
2018-Feb-18 05:58N 47°02' W 002°18'0 0.0
2018-Feb-18 05:30N 47°02' W 002°18'0 0.0
2018-Feb-18 05:00N 47°02' W 002°18'0 0.0
2018-Feb-18 04:30N 47°02' W 002°18'0 0.0
2018-Feb-18 04:00N 47°02' W 002°18'0 0.0
2018-Feb-18 03:30N 47°02' W 002°18'0 0.0
2018-Feb-18 03:00N 47°02' W 002°18'0 0.0
2018-Feb-18 02:30N 47°02' W 002°18'0 0.0
2018-Feb-18 02:00N 47°02' W 002°18'0 0.0
2018-Feb-18 01:30N 47°02' W 002°18'0 0.0
2018-Feb-18 01:00N 47°02' W 002°18'0 0.0
2018-Feb-18 00:30N 47°02' W 002°18'0 0.0
2018-Feb-18 00:00N 47°02' W 002°18'0 0.0
2018-Feb-17 23:29N 47°02' W 002°18'0 0.0
2018-Feb-17 20:41N 47°02' W 002°18'0 0.0
2018-Feb-17 20:29N 47°02' W 002°18'1 1.2
2018-Feb-17 20:00N 47°02' W 002°18'6 8.3
2018-Feb-17 19:17N 47°02' W 002°27'  
2018-Feb-14 10:44N 47°02' W 002°20'1 0.8
2018-Feb-14 09:00N 47°02' W 002°18'0 0.0
2018-Feb-13 11:30N 47°02' W 002°18'0 0.0
2018-Feb-13 10:56N 47°02' W 002°18'0 0.0
2018-Feb-13 10:30N 47°02' W 002°18'0 0.0
2018-Feb-13 10:00N 47°02' W 002°18'0 0.0
2018-Feb-13 08:50N 47°02' W 002°18'0 0.0
2018-Feb-12 15:47N 47°02' W 002°18'  
2018-Feb-09 22:08N 47°01' W 002°21'  
Track history (hours):
 
Tides and Currents Weather Stations Pressure Air Temp Water Temp Dewpoint Dewpoint Depression Visibility Wind Speed Wind Dir Waves Ship Positions

F/V Oiseau D Tempete

Last reported at 2018-Feb-18 21:01 UTC. Time now 2018-Feb-21 09:44 UTC.
Position N 47°01' W 002°20'.

Length 15 m; draft 2 m.

Type: Fishing. MMSI: 227808000.

Date/timePositionNaut miles runAvg speedWind from/ knotsBaromVisibWave heightAir tempDewpointWater temp
2018-Feb-18 21:01N 47°01' W 002°20'010.1
2018-Feb-18 21:00N 47°01' W 002°20'2 1.5
2018-Feb-18 19:55N 47°02' W 002°18'0 0.0
2018-Feb-18 19:29N 47°02' W 002°18'0 0.0
2018-Feb-18 18:56N 47°02' W 002°18'0 0.0
2018-Feb-18 18:30N 47°02' W 002°18'0 0.0
2018-Feb-18 17:59N 47°02' W 002°18'0 0.0
2018-Feb-18 17:29N 47°02' W 002°18'0 0.0
2018-Feb-18 17:00N 47°02' W 002°18'0 0.0
2018-Feb-18 16:29N 47°02' W 002°18'0 0.0
2018-Feb-18 15:59N 47°02' W 002°18'0 0.0
2018-Feb-18 15:26N 47°02' W 002°18'0 0.0
2018-Feb-18 14:58N 47°02' W 002°18'0 0.0
2018-Feb-18 14:04N 47°02' W 002°18'0 0.0
2018-Feb-18 13:51N 47°02' W 002°18'0 0.0
2018-Feb-18 13:21N 47°02' W 002°18'0 0.0
2018-Feb-18 12:47N 47°02' W 002°18'0 0.0
2018-Feb-18 12:25N 47°02' W 002°18'0 0.0
2018-Feb-18 11:38N 47°02' W 002°18'0 0.0
2018-Feb-18 11:30N 47°02' W 002°18'0 0.0
2018-Feb-18 11:00N 47°02' W 002°18'0 0.0
2018-Feb-18 10:20N 47°02' W 002°18'0 0.0
2018-Feb-18 09:57N 47°02' W 002°18'0 0.0
2018-Feb-18 09:29N 47°02' W 002°18'0 0.0
2018-Feb-18 08:59N 47°02' W 002°18'0 0.0
2018-Feb-18 08:30N 47°02' W 002°18'0 0.0
2018-Feb-18 08:00N 47°02' W 002°18'0 0.0
2018-Feb-18 07:28N 47°02' W 002°18'0 0.0
2018-Feb-18 06:59N 47°02' W 002°18'0 0.0
2018-Feb-18 06:29N 47°02' W 002°18'0 0.0
2018-Feb-18 05:58N 47°02' W 002°18'0 0.0
2018-Feb-18 05:30N 47°02' W 002°18'0 0.0
2018-Feb-18 05:00N 47°02' W 002°18'0 0.0
2018-Feb-18 04:30N 47°02' W 002°18'0 0.0
2018-Feb-18 04:00N 47°02' W 002°18'0 0.0
2018-Feb-18 03:30N 47°02' W 002°18'0 0.0
2018-Feb-18 03:00N 47°02' W 002°18'0 0.0
2018-Feb-18 02:30N 47°02' W 002°18'0 0.0
2018-Feb-18 02:00N 47°02' W 002°18'0 0.0
2018-Feb-18 01:30N 47°02' W 002°18'0 0.0
2018-Feb-18 01:00N 47°02' W 002°18'0 0.0
2018-Feb-18 00:30N 47°02' W 002°18'0 0.0
2018-Feb-18 00:00N 47°02' W 002°18'0 0.0
2018-Feb-17 23:29N 47°02' W 002°18'0 0.0
2018-Feb-17 20:41N 47°02' W 002°18'0 0.0
2018-Feb-17 20:29N 47°02' W 002°18'1 1.2
2018-Feb-17 20:00N 47°02' W 002°18'6 8.3
2018-Feb-17 19:17N 47°02' W 002°27'  
2018-Feb-14 10:44N 47°02' W 002°20'1 0.8
2018-Feb-14 09:00N 47°02' W 002°18'0 0.0
2018-Feb-13 11:30N 47°02' W 002°18'0 0.0
2018-Feb-13 10:56N 47°02' W 002°18'0 0.0
2018-Feb-13 10:30N 47°02' W 002°18'0 0.0
2018-Feb-13 10:00N 47°02' W 002°18'0 0.0
2018-Feb-13 08:50N 47°02' W 002°18'0 0.0
2018-Feb-12 15:47N 47°02' W 002°18'  
2018-Feb-09 22:08N 47°01' W 002°21'  

Dump ship's entire track history